Algona, Washington
Current Conditions -  °F | °C
As of 12:53 AM on Monday 20 Oct 2014 (Local Time) from KSEA Reporting Station
Overcast Overcast  
Wind Chill: 60°   Ceiling: 5500
Heat Index: 60°   Visibility: 10mi
Dew Point: 55°   Wind: 3mph
Humidity: 83%   Direction: 120°ESE
Pressure: 29.72"   Gusts: NA
Location:  47.31°N, 122.266°W
Report Text: KSEA 200753Z 12003KT 10SM BKN055 OVC075 16/13 A2972 RMK AO2 SLP067 T01560128 402220128
Loading
Personal Weather Stations






























Interactive Weather Map
Tropical Storm Tracking
New forecast layout! Learn more

10-Day Weather Forecast

Advertisements
Track Severe Weather on mobile